Time;durP1;ratioP1;P1;durP2;ratioP2;P2;SDS_P1;SDS_P2;PMS_P1;PMS_P2;Temp;Humidity;BMP_temperature;BMP_pressure;BME280_temperature;BME280_humidity;BME280_pressure;Samples;Min_cycle;Max_cycle;Signal;HPM_P1;HPM_P2
2021/12/25 00:01:41;;;;;;;2.53;0.80;;;;;;;0.45;83.00;99806.81;5020884;28;20510;-74
2021/12/25 00:04:07;;;;;;;3.57;0.93;;;;;;;0.35;82.12;99805.72;5023307;28;20069;-76
2021/12/25 00:06:34;;;;;;;2.23;0.83;;;;;;;0.32;82.61;99810.84;5020401;28;20078;-76
2021/12/25 00:08:59;;;;;;;1.93;0.80;;;;;;;0.30;81.08;99812.53;5023624;28;20041;-76
2021/12/25 00:11:25;;;;;;;3.07;0.80;;;;;;;0.17;83.51;99818.28;5020323;28;20042;-76
2021/12/25 00:13:50;;;;;;;3.83;0.90;;;;;;;0.22;83.57;99821.84;5023175;28;20052;-76
2021/12/25 00:16:15;;;;;;;2.43;1.10;;;;;;;0.18;83.41;99822.59;5023023;28;20056;-76
2021/12/25 00:18:41;;;;;;;9.37;3.97;;;;;;;0.20;82.74;99832.19;5022428;28;20077;-76
2021/12/25 00:21:08;;;;;;;17.03;7.83;;;;;;;0.14;83.05;99838.97;5021501;28;20575;-76
2021/12/25 00:23:33;;;;;;;13.50;5.10;;;;;;;0.12;83.64;99843.22;5022149;28;20123;-76
2021/12/25 00:26:04;;;;;;;3.67;1.23;;;;;;;0.11;84.37;99841.50;5020644;28;20120;-76
2021/12/25 00:31:24;;;;;;;5.87;3.10;;;;;;;0.16;83.75;99845.94;5022115;28;20041;-76
2021/12/25 00:33:56;;;;;;;3.13;1.30;;;;;;;0.18;84.47;99849.47;5021279;28;20136;-76
2021/12/25 00:36:23;;;;;;;4.45;2.58;;;;;;;0.17;83.86;99857.19;5021683;28;20045;-76
2021/12/25 00:38:50;;;;;;;3.37;1.60;;;;;;;-0.04;83.05;99855.81;5016763;28;20041;-76
2021/12/25 00:41:19;;;;;;;1.60;0.70;;;;;;;-0.06;84.13;99848.81;5021390;28;20493;-76
2021/12/25 00:43:45;;;;;;;2.17;0.83;;;;;;;-0.04;84.76;99852.34;5023785;28;20033;-76
2021/12/25 00:46:11;;;;;;;2.93;1.10;;;;;;;-0.08;83.79;99861.78;5016264;28;20049;-76
2021/12/25 00:48:37;;;;;;;1.77;0.80;;;;;;;-0.10;84.97;99867.75;5020524;28;20105;-76
2021/12/25 00:51:04;;;;;;;3.07;1.27;;;;;;;-0.15;84.21;99870.22;5022854;28;20072;-76
2021/12/25 00:53:29;;;;;;;4.90;1.63;;;;;;;-0.13;83.77;99886.72;5015596;28;20485;-76
2021/12/25 00:55:55;;;;;;;3.97;1.20;;;;;;;-0.19;84.45;99883.94;5019562;28;20044;-76
2021/12/25 00:58:22;;;;;;;2.50;1.10;;;;;;;-0.20;84.47;99889.97;5020896;28;20125;-76
2021/12/25 01:00:48;;;;;;;3.43;1.10;;;;;;;-0.24;85.28;99895.91;5023768;28;20029;-76
2021/12/25 01:03:14;;;;;;;3.10;0.73;;;;;;;-0.15;85.57;99906.53;5026982;28;20035;-76
2021/12/25 01:05:39;;;;;;;2.63;0.77;;;;;;;-0.15;84.39;99922.09;5018814;28;20037;-76
2021/12/25 01:08:06;;;;;;;2.20;0.50;;;;;;;-0.25;81.69;99914.91;5017390;28;20030;-76
2021/12/25 01:10:34;;;;;;;3.43;1.00;;;;;;;-0.32;81.86;99918.16;5020995;28;20026;-76
2021/12/25 01:15:44;;;;;;;1.50;0.50;;;;;;;-0.42;80.00;99937.75;5017199;28;20036;-76
2021/12/25 01:18:42;;;;;;;0.80;0.30;;;;;;;-0.47;81.45;99945.44;5018524;28;20084;-76
2021/12/25 01:24:15;;;;;;;1.97;0.37;;;;;;;-0.46;81.07;99949.75;5019352;28;20088;-76
2021/12/25 01:35:00;;;;;;;1.50;0.20;;;;;;;-0.74;77.76;99967.94;5029702;28;20044;-76
2021/12/25 01:38:07;;;;;;;0.93;0.27;;;;;;;-0.79;77.69;99975.56;5022915;28;20033;-76
2021/12/25 01:41:00;;;;;;;1.07;0.30;;;;;;;-0.88;75.60;99973.56;5025774;28;20103;-76
2021/12/25 01:49:41;;;;;;;0.90;0.23;;;;;;;-1.11;69.76;99972.84;5021559;28;20095;-76
2021/12/25 01:52:07;;;;;;;0.83;0.10;;;;;;;-1.15;69.61;99983.94;5021286;28;20117;-76
2021/12/25 01:54:33;;;;;;;0.83;0.30;;;;;;;-1.29;69.03;99995.56;5023801;28;20384;-76
2021/12/25 01:56:59;;;;;;;3.00;0.30;;;;;;;-1.32;69.42;99985.97;5006089;28;20034;-76
2021/12/25 01:59:24;;;;;;;2.33;0.43;;;;;;;-1.34;70.50;99994.53;5020101;28;20045;-76
2021/12/25 02:01:50;;;;;;;1.70;0.53;;;;;;;-1.23;71.94;100002.63;5029516;28;20037;-76
2021/12/25 02:04:15;;;;;;;1.60;0.20;;;;;;;-1.27;71.03;100001.66;5023377;28;20034;-77
2021/12/25 02:06:41;;;;;;;2.33;0.30;;;;;;;-1.24;71.68;99999.19;5037372;28;20040;-76
2021/12/25 02:09:07;;;;;;;2.13;0.23;;;;;;;-1.32;72.31;100001.50;5030162;28;20530;-76
2021/12/25 02:11:32;;;;;;;0.80;0.10;;;;;;;-1.34;72.79;99998.03;5024407;28;20033;-77
2021/12/25 02:13:58;;;;;;;1.07;0.20;;;;;;;-1.29;72.52;100011.09;5017773;28;20033;-76
2021/12/25 02:16:36;;;;;;;1.50;0.20;;;;;;;-1.25;72.50;100001.75;5022073;28;20034;-76
2021/12/25 02:19:09;;;;;;;2.57;0.40;;;;;;;-1.28;73.11;100006.78;5022106;28;20037;-76
2021/12/25 02:21:42;;;;;;;1.47;0.30;;;;;;;-1.32;72.86;100009.28;5021944;28;20052;-76
2021/12/25 02:24:11;;;;;;;2.17;0.30;;;;;;;-1.33;72.21;100019.59;5019850;28;20030;-76
2021/12/25 02:26:39;;;;;;;3.37;0.47;;;;;;;-1.38;73.39;100019.44;5024213;28;20065;-77
2021/12/25 02:29:04;;;;;;;1.80;0.20;;;;;;;-1.30;74.13;100024.88;5022000;28;20122;-76
2021/12/25 02:31:30;;;;;;;4.83;1.30;;;;;;;-1.34;73.29;100029.09;5019294;28;20038;-76
2021/12/25 02:33:55;;;;;;;0.30;0.10;;;;;;;-1.30;73.25;100024.88;5025608;28;20025;-76
2021/12/25 02:36:21;;;;;;;1.77;0.23;;;;;;;-1.38;72.56;100029.78;5031428;28;20041;-76
2021/12/25 02:38:48;;;;;;;0.70;0.10;;;;;;;-1.44;72.22;100023.50;5022750;28;20032;-76
2021/12/25 02:41:14;;;;;;;1.60;0.30;;;;;;;-1.58;71.12;100023.94;5023524;28;20033;-76
2021/12/25 02:43:44;;;;;;;2.00;0.27;;;;;;;-1.60;71.86;100042.81;5034143;28;20042;-76
2021/12/25 02:46:11;;;;;;;0.50;0.10;;;;;;;-1.65;72.07;100052.13;5023964;28;20044;-76
2021/12/25 02:48:37;;;;;;;0.80;0.10;;;;;;;-1.60;72.74;100056.66;5023463;28;20112;-76
2021/12/25 02:51:05;;;;;;;1.17;0.23;;;;;;;-1.60;73.47;100045.41;5017533;28;20034;-76
2021/12/25 02:53:31;;;;;;;3.30;0.23;;;;;;;-1.52;72.63;100049.13;5036955;28;20076;-76
2021/12/25 02:55:56;;;;;;;1.47;0.40;;;;;;;-1.55;72.73;100047.34;5023673;28;20039;-76
2021/12/25 02:58:24;;;;;;;1.73;0.10;;;;;;;-1.60;71.94;100051.50;5020020;28;20025;-76
2021/12/25 03:00:57;;;;;;;2.87;0.13;;;;;;;-1.68;72.08;100057.19;5020685;28;20037;-75
2021/12/25 03:03:23;;;;;;;1.43;0.30;;;;;;;-1.80;71.41;100058.53;5021659;28;20076;-73
2021/12/25 03:05:49;;;;;;;1.57;0.40;;;;;;;-1.87;72.93;100046.19;5023490;28;20065;-74
2021/12/25 03:08:15;;;;;;;2.67;0.40;;;;;;;-1.96;72.42;100050.19;5020144;28;20460;-75
2021/12/25 03:10:47;;;;;;;2.25;0.50;;;;;;;-2.00;72.60;100050.03;5020093;28;20049;-74
2021/12/25 03:15:51;;;;;;;2.43;0.40;;;;;;;-1.98;72.84;100057.88;5024366;28;20561;-74
2021/12/25 03:18:28;;;;;;;1.23;0.40;;;;;;;-2.02;72.58;100053.41;5021791;28;20026;-75
2021/12/25 03:20:58;;;;;;;1.60;0.40;;;;;;;-2.10;72.41;100057.41;5021722;28;20034;-75
2021/12/25 03:23:26;;;;;;;2.97;0.70;;;;;;;-2.08;72.73;100063.53;5018832;28;20391;-75
2021/12/25 03:25:54;;;;;;;3.17;0.50;;;;;;;-2.08;72.81;100063.53;5021573;28;20065;-75
2021/12/25 03:28:22;;;;;;;1.67;0.47;;;;;;;-2.04;72.70;100068.88;5021282;28;20112;-73
2021/12/25 03:30:49;;;;;;;2.13;0.63;;;;;;;-1.95;72.96;100065.72;5018359;28;20029;-74
2021/12/25 03:33:17;;;;;;;1.87;0.50;;;;;;;-1.84;73.85;100067.00;5021400;28;20077;-75
2021/12/25 03:35:42;;;;;;;2.70;0.40;;;;;;;-1.82;73.20;100064.47;5021474;28;20399;-75
2021/12/25 03:38:12;;;;;;;1.47;0.40;;;;;;;-2.04;71.88;100068.00;5034071;28;20034;-74
2021/12/25 03:40:38;;;;;;;4.23;0.70;;;;;;;-2.04;73.30;100068.88;5023022;28;20049;-74
2021/12/25 03:43:05;;;;;;;2.00;0.30;;;;;;;-2.00;72.67;100075.03;5023136;28;20132;-74
2021/12/25 03:45:32;;;;;;;2.47;1.00;;;;;;;-1.92;72.79;100078.78;5020349;28;20076;-75
2021/12/25 03:53:09;;;;;;;3.70;0.60;;;;;;;-1.93;72.47;100087.38;5017541;28;20029;-74
2021/12/25 03:58:37;;;;;;;2.57;0.50;;;;;;;-1.98;73.07;100088.91;5023299;28;20057;-75
2021/12/25 04:01:26;;;;;;;1.73;0.50;;;;;;;-2.04;72.70;100091.28;5019744;28;20057;-74
2021/12/25 04:07:06;;;;;;;2.60;0.40;;;;;;;-1.99;72.98;100094.91;5002695;28;20041;-75
2021/12/25 04:09:34;;;;;;;2.20;0.40;;;;;;;-2.07;73.16;100091.13;5023247;28;20030;-74
2021/12/25 04:12:03;;;;;;;3.57;0.70;;;;;;;-2.14;72.59;100094.34;5030473;28;20037;-75
2021/12/25 04:14:30;;;;;;;1.60;0.50;;;;;;;-2.19;72.65;100095.88;5038980;28;20078;-74
2021/12/25 04:16:56;;;;;;;3.13;0.67;;;;;;;-2.24;72.87;100093.09;5022384;28;20478;-74
2021/12/25 04:19:22;;;;;;;3.67;0.60;;;;;;;-2.31;72.19;100091.09;5018913;28;20026;-74
2021/12/25 04:22:02;;;;;;;1.73;0.63;;;;;;;-2.30;73.02;100091.16;5018491;28;20022;-75
2021/12/25 04:24:33;;;;;;;2.80;0.43;;;;;;;-2.29;73.19;100097.22;5024713;28;20041;-74
2021/12/25 04:27:00;;;;;;;2.30;0.60;;;;;;;-2.37;72.89;100101.19;5021271;28;20033;-74
2021/12/25 04:49:02;;;;;;;2.47;0.53;;;;;;;-2.41;73.12;100131.22;5018189;28;20562;-74
2021/12/25 05:02:08;;;;;;;3.40;0.70;;;;;;;-2.31;73.49;100141.06;5022015;28;20132;-74
2021/12/25 05:05:05;;;;;;;1.35;0.60;;;;;;;-2.35;73.48;100134.03;5030582;28;20037;-75
2021/12/25 05:07:40;;;;;;;1.30;0.50;;;;;;;-2.37;73.38;100127.94;5025629;28;20040;-74
2021/12/25 05:10:06;;;;;;;2.90;0.57;;;;;;;-2.36;73.67;100126.22;5023807;28;20124;-73
2021/12/25 05:12:31;;;;;;;1.97;0.50;;;;;;;-2.39;73.70;100126.97;5020358;28;20056;-77
2021/12/25 05:14:58;;;;;;;2.70;0.50;;;;;;;-2.46;72.91;100135.34;5024485;28;20033;-76
2021/12/25 05:17:23;;;;;;;3.00;0.40;;;;;;;-2.47;73.83;100138.72;5024356;28;20087;-76
2021/12/25 05:19:49;;;;;;;4.63;0.70;;;;;;;-2.55;73.36;100134.94;5019693;28;20496;-76
2021/12/25 05:22:15;;;;;;;2.77;0.40;;;;;;;-2.59;73.60;100140.81;5025642;28;20029;-76
2021/12/25 05:24:41;;;;;;;3.10;0.50;;;;;;;-2.62;73.73;100143.28;5025238;28;20037;-76
2021/12/25 05:27:07;;;;;;;2.87;0.40;;;;;;;-2.68;73.66;100147.38;5034752;28;20065;-76
2021/12/25 05:29:34;;;;;;;4.20;0.60;;;;;;;-2.75;73.53;100137.63;5023045;28;20045;-76
2021/12/25 05:32:00;;;;;;;3.57;0.90;;;;;;;-2.78;72.98;100152.09;5038259;28;20042;-76
2021/12/25 05:34:36;;;;;;;3.50;0.63;;;;;;;-2.78;73.90;100157.25;5021918;28;20554;-76
2021/12/25 05:37:09;;;;;;;2.45;0.40;;;;;;;-2.74;73.20;100162.63;5025669;28;20111;-76
2021/12/25 05:39:53;;;;;;;2.63;0.40;;;;;;;-2.67;73.31;100166.34;5025407;28;20127;-76
2021/12/25 05:42:23;;;;;;;3.23;0.50;;;;;;;-2.67;73.16;100169.81;5021829;28;20025;-76
2021/12/25 05:44:51;;;;;;;1.87;0.50;;;;;;;-2.63;73.90;100173.41;5021151;28;20041;-76
2021/12/25 05:47:22;;;;;;;2.10;0.52;;;;;;;-2.56;73.94;100172.84;5022695;28;20092;-76
2021/12/25 05:49:51;;;;;;;3.20;0.60;;;;;;;-2.52;74.16;100181.59;5021608;28;20411;-76
2021/12/25 05:52:35;;;;;;;4.23;0.80;;;;;;;-2.54;73.52;100185.78;5024572;28;20051;-76
2021/12/25 05:55:30;;;;;;;2.10;0.40;;;;;;;-2.50;73.98;100180.81;5008467;28;20046;-76
2021/12/25 05:57:58;;;;;;;2.67;0.70;;;;;;;-2.47;73.84;100182.66;5024475;28;20048;-76
2021/12/25 06:00:40;;;;;;;2.60;0.70;;;;;;;-2.44;73.36;100190.53;5025878;28;20053;-76
2021/12/25 06:03:05;;;;;;;3.53;0.93;;;;;;;-2.50;73.00;100191.16;5021736;28;20034;-76
2021/12/25 06:05:37;;;;;;;2.63;1.40;;;;;;;-2.58;72.61;100189.97;5020976;28;20408;-76
2021/12/25 06:08:03;;;;;;;3.67;0.80;;;;;;;-2.69;72.50;100184.38;5040572;28;20037;-73
2021/12/25 06:10:28;;;;;;;2.43;0.60;;;;;;;-2.80;72.67;100198.53;5026036;28;20037;-73
2021/12/25 06:12:56;;;;;;;4.70;0.60;;;;;;;-2.88;73.40;100197.34;5023705;28;20038;-73
2021/12/25 06:15:22;;;;;;;1.40;0.40;;;;;;;-2.99;73.85;100191.69;5022963;28;20075;-74
2021/12/25 06:17:57;;;;;;;1.27;0.40;;;;;;;-3.19;73.30;100193.44;5021767;28;20431;-74
2021/12/25 06:20:28;;;;;;;3.27;0.60;;;;;;;-3.42;73.79;100199.28;5020893;28;20044;-74
2021/12/25 06:23:10;;;;;;;;;;;;;;;-3.56;73.40;100199.56;5022829;28;20117;-74
2021/12/25 06:25:52;;;;;;;4.07;0.50;;;;;;;-3.71;74.19;100203.13;5020717;28;20003;-74
2021/12/25 06:28:21;;;;;;;1.73;0.47;;;;;;;-3.89;75.19;100203.16;5036984;28;20129;-74
2021/12/25 06:31:09;;;;;;;1.57;0.30;;;;;;;-4.00;74.95;100210.41;5023686;28;20050;-73
2021/12/25 06:33:51;;;;;;;2.10;0.70;;;;;;;-4.10;75.42;100203.06;5020701;28;20072;-74
2021/12/25 06:36:36;;;;;;;3.30;0.40;;;;;;;-4.25;75.30;100209.22;5023137;28;20067;-74
2021/12/25 06:39:24;;;;;;;2.67;0.50;;;;;;;-4.33;76.04;100209.69;5022701;28;20061;-74
2021/12/25 06:41:59;;;;;;;2.00;0.40;;;;;;;-4.38;76.89;100216.31;5022043;28;20033;-74
2021/12/25 06:44:25;;;;;;;1.70;0.40;;;;;;;-4.39;76.77;100220.59;5018429;28;20034;-74
2021/12/25 06:46:51;;;;;;;1.50;0.30;;;;;;;-4.39;76.99;100223.16;5027548;28;20021;-74
2021/12/25 06:49:18;;;;;;;2.90;0.60;;;;;;;-4.44;77.42;100227.19;5022732;28;20061;-73
2021/12/25 06:52:02;;;;;;;1.83;0.40;;;;;;;-4.54;77.13;100231.00;5020636;28;20484;-74
2021/12/25 06:54:37;;;;;;;1.87;0.80;;;;;;;-4.60;77.63;100235.88;5020008;28;20046;-74
2021/12/25 06:57:18;;;;;;;1.60;0.67;;;;;;;-4.72;77.68;100242.97;5021814;28;20037;-74
2021/12/25 06:59:43;;;;;;;2.07;0.70;;;;;;;-4.78;78.34;100248.69;5001733;28;20408;-74
2021/12/25 07:02:09;;;;;;;4.13;0.50;;;;;;;-4.83;77.99;100259.56;5022529;28;20037;-74
2021/12/25 07:04:53;;;;;;;1.50;0.60;;;;;;;-4.87;78.61;100266.28;5021332;28;20095;-74
2021/12/25 07:07:41;;;;;;;3.83;0.60;;;;;;;-4.92;78.83;100263.47;5022827;28;20512;-74
2021/12/25 07:10:26;;;;;;;3.53;0.80;;;;;;;-5.00;78.87;100264.75;5020107;28;20181;-74
2021/12/25 07:12:55;;;;;;;2.00;0.50;;;;;;;-5.07;78.92;100260.97;5022998;28;20030;-74
2021/12/25 07:15:35;;;;;;;1.80;0.67;;;;;;;-5.13;79.19;100268.38;5018540;28;20034;-78
2021/12/25 07:18:08;;;;;;;3.08;0.50;;;;;;;-5.19;79.87;100264.59;5022659;28;20124;-78
2021/12/25 07:20:59;;;;;;;3.27;0.60;;;;;;;-5.23;79.94;100271.28;5021523;28;20562;-78
2021/12/25 07:23:49;;;;;;;3.30;1.53;;;;;;;-5.26;79.93;100270.25;5028389;28;20164;-78
2021/12/25 07:26:38;;;;;;;4.87;0.73;;;;;;;-5.34;79.38;100283.56;5006815;28;20034;-79
2021/12/25 07:29:17;;;;;;;2.67;0.80;;;;;;;-5.48;80.01;100287.06;5020856;28;20057;-78
2021/12/25 07:31:42;;;;;;;2.10;0.50;;;;;;;-5.52;80.54;100282.59;5024377;28;20037;-78
2021/12/25 07:34:08;;;;;;;3.77;0.87;;;;;;;-5.51;80.28;100284.34;5021090;28;20034;-76
2021/12/25 07:36:33;;;;;;;2.33;0.70;;;;;;;-5.53;80.93;100288.50;5026086;28;20029;-76
2021/12/25 07:39:00;;;;;;;4.00;0.80;;;;;;;-5.58;81.02;100290.84;5026037;28;20476;-76
2021/12/25 07:41:25;;;;;;;1.23;0.40;;;;;;;-5.60;81.39;100295.03;5026241;28;20045;-76
2021/12/25 07:43:57;;;;;;;2.80;0.70;;;;;;;-5.59;80.62;100291.63;5061198;28;20381;-76
2021/12/25 07:46:31;;;;;;;4.30;0.90;;;;;;;-5.59;80.97;100290.75;5045257;28;20037;-76
2021/12/25 07:48:58;;;;;;;1.83;0.60;;;;;;;-5.59;81.47;100288.19;5035892;28;20049;-76
2021/12/25 07:51:23;;;;;;;2.50;0.40;;;;;;;-5.58;81.11;100282.22;5025052;28;20080;-76
2021/12/25 07:53:49;;;;;;;2.47;0.63;;;;;;;-5.57;81.34;100286.59;5028857;28;20492;-77
2021/12/25 07:56:14;;;;;;;6.03;0.80;;;;;;;-5.57;81.02;100289.16;5028484;28;20069;-77
2021/12/25 07:58:42;;;;;;;4.43;0.47;;;;;;;-5.57;81.56;100291.72;5028629;28;20049;-77
2021/12/25 08:01:08;;;;;;;3.27;0.70;;;;;;;-5.55;81.41;100293.59;5028452;28;20502;-77
2021/12/25 08:03:33;;;;;;;2.73;0.60;;;;;;;-5.52;81.71;100287.72;5027270;28;20128;-77
2021/12/25 08:05:59;;;;;;;2.20;0.40;;;;;;;-5.49;81.10;100287.88;5028282;28;20201;-77
2021/12/25 08:08:24;;;;;;;3.27;0.60;;;;;;;-5.44;80.98;100285.56;5028504;28;20030;-77
2021/12/25 08:10:50;;;;;;;1.90;0.60;;;;;;;-5.44;81.35;100286.44;5028468;28;20495;-77
2021/12/25 08:13:16;;;;;;;3.53;0.73;;;;;;;-5.47;81.58;100286.28;5027224;28;20048;-77
2021/12/25 08:15:43;;;;;;;3.53;0.60;;;;;;;-5.45;81.60;100294.94;5027999;28;20033;-76
2021/12/25 08:18:09;;;;;;;3.33;0.77;;;;;;;-5.41;80.67;100299.47;5015807;28;20033;-77
2021/12/25 08:20:53;;;;;;;2.23;0.50;;;;;;;-5.41;80.67;100294.31;5033262;28;20523;-76
2021/12/25 08:23:37;;;;;;;2.70;0.63;;;;;;;-5.39;80.61;100303.00;5025449;28;20133;-76
2021/12/25 08:26:21;;;;;;;2.03;0.60;;;;;;;-5.36;81.09;100299.72;5027974;28;20100;-77
2021/12/25 08:29:13;;;;;;;4.43;0.80;;;;;;;-5.28;81.57;100299.31;5026414;28;20037;-76
2021/12/25 08:32:13;;;;;;;4.43;0.90;;;;;;;-5.15;80.77;100302.56;5026855;28;20033;-76
2021/12/25 08:35:10;;;;;;;2.67;1.00;;;;;;;-5.06;81.10;100313.31;5025972;28;20408;-77
2021/12/25 08:37:38;;;;;;;5.80;0.80;;;;;;;-5.02;80.38;100317.84;5026772;28;20033;-77
2021/12/25 08:40:05;;;;;;;6.10;1.00;;;;;;;-4.97;80.04;100311.22;5028093;28;20083;-77
2021/12/25 08:42:31;;;;;;;2.30;0.73;;;;;;;-4.92;80.38;100314.94;5027519;28;20029;-76
2021/12/25 08:47:26;;;;;;;2.97;0.90;;;;;;;-4.80;79.69;100316.38;5027385;28;20037;-77
2021/12/25 08:49:52;;;;;;;5.47;1.07;;;;;;;-4.78;80.37;100307.91;5027827;28;20452;-76
2021/12/25 08:52:20;;;;;;;3.53;1.30;;;;;;;-4.71;80.00;100303.97;5027842;28;20117;-77
2021/12/25 08:54:48;;;;;;;2.63;0.87;;;;;;;-4.67;80.23;100300.75;5017268;28;20058;-76
2021/12/25 08:57:16;;;;;;;3.07;0.90;;;;;;;-4.60;79.54;100313.13;5014478;28;20467;-76
2021/12/25 08:59:41;;;;;;;4.27;0.90;;;;;;;-4.51;79.86;100305.84;5014133;28;20038;-76
2021/12/25 09:02:12;;;;;;;2.27;0.90;;;;;;;-4.41;78.98;100305.50;5014263;28;20030;-77
2021/12/25 09:04:38;;;;;;;3.47;1.13;;;;;;;-4.31;79.11;100303.41;5014042;28;20443;-76
2021/12/25 09:07:04;;;;;;;3.67;1.03;;;;;;;-4.21;78.99;100306.50;5014191;28;20034;-77
2021/12/25 09:09:30;;;;;;;2.40;0.90;;;;;;;-4.11;78.17;100306.94;5014190;28;20072;-76
2021/12/25 09:11:55;;;;;;;3.97;1.17;;;;;;;-4.05;78.42;100317.56;5014150;28;20030;-76
2021/12/25 09:14:21;;;;;;;4.53;1.17;;;;;;;-3.99;78.64;100326.47;5014073;28;20520;-77
2021/12/25 09:16:46;;;;;;;3.33;1.30;;;;;;;-3.99;77.01;100334.19;5014041;28;20038;-77
2021/12/25 09:19:12;;;;;;;5.23;1.20;;;;;;;-3.87;77.40;100340.78;5014080;28;20038;-76
2021/12/25 09:21:37;;;;;;;4.27;1.20;;;;;;;-3.76;77.54;100339.59;5013864;28;20042;-77
2021/12/25 09:24:03;;;;;;;4.00;1.20;;;;;;;-3.70;76.93;100347.63;5013906;28;20046;-76
2021/12/25 09:26:28;;;;;;;4.97;0.87;;;;;;;-3.69;76.31;100341.66;5020696;28;20033;-76
2021/12/25 09:28:54;;;;;;;3.40;1.00;;;;;;;-3.65;75.89;100353.00;5012693;28;20041;-76
2021/12/25 09:31:19;;;;;;;4.17;0.93;;;;;;;-3.65;75.55;100347.84;5013929;28;20045;-77
2021/12/25 09:33:45;;;;;;;2.13;0.73;;;;;;;-3.60;76.02;100343.78;5013889;28;20030;-76
2021/12/25 09:36:11;;;;;;;4.90;0.90;;;;;;;-3.52;75.82;100351.06;5020730;28;20034;-76
2021/12/25 09:38:36;;;;;;;3.97;0.73;;;;;;;-3.40;75.62;100344.75;5013612;28;20103;-76
2021/12/25 09:41:03;;;;;;;4.30;0.63;;;;;;;-3.31;74.54;100340.88;5013549;28;20057;-77
2021/12/25 09:43:29;;;;;;;5.00;0.70;;;;;;;-3.16;74.85;100339.81;5013525;28;20096;-76
2021/12/25 09:45:54;;;;;;;3.93;0.60;;;;;;;-3.03;74.48;100342.16;5013229;28;20616;-77
2021/12/25 09:48:20;;;;;;;4.50;0.80;;;;;;;-2.85;74.07;100339.50;5013438;28;20164;-76
2021/12/25 09:50:46;;;;;;;3.17;1.00;;;;;;;-2.67;73.91;100337.75;5013430;28;20070;-76
2021/12/25 09:53:13;;;;;;;2.73;0.70;;;;;;;-2.55;72.82;100337.38;5013447;28;20049;-77
2021/12/25 09:55:39;;;;;;;3.50;0.93;;;;;;;-2.46;71.86;100347.25;5013052;28;20507;-76
2021/12/25 09:58:06;;;;;;;2.50;0.93;;;;;;;-2.33;71.79;100349.53;5013255;28;20057;-76
2021/12/25 10:00:35;;;;;;;2.80;0.80;;;;;;;-2.12;71.42;100343.47;5013183;28;20489;-76
2021/12/25 10:03:01;;;;;;;6.67;1.00;;;;;;;-1.93;71.28;100350.31;5013019;28;20112;-76
2021/12/25 10:05:31;;;;;;;3.37;0.80;;;;;;;-1.90;69.83;100348.72;5011959;28;20038;-77
2021/12/25 10:08:16;;;;;;;2.87;0.97;;;;;;;-1.78;68.69;100341.47;5012913;28;20046;-76
2021/12/25 10:10:46;;;;;;;4.63;1.10;;;;;;;-1.71;68.43;100347.75;5009141;28;20038;-77
2021/12/25 10:13:35;;;;;;;2.70;0.87;;;;;;;-1.57;68.00;100348.31;5009298;28;20042;-76
2021/12/25 10:16:24;;;;;;;4.57;1.07;;;;;;;-1.41;69.23;100344.63;5012036;28;20096;-76
2021/12/25 10:18:51;;;;;;;3.20;0.83;;;;;;;-1.27;68.56;100345.16;5010407;28;20049;-76
2021/12/25 10:21:23;;;;;;;3.33;1.17;;;;;;;-1.33;67.46;100336.31;5012828;28;20045;-77
2021/12/25 10:24:12;;;;;;;3.67;1.10;;;;;;;-1.30;67.42;100347.63;5011332;28;20061;-77
2021/12/25 10:26:40;;;;;;;2.20;0.90;;;;;;;-1.20;68.21;100342.00;5009890;28;20454;-77
2021/12/25 10:29:25;;;;;;;4.47;1.37;;;;;;;-0.95;68.14;100336.88;5012493;28;20041;-77
2021/12/25 10:31:54;;;;;;;4.97;1.20;;;;;;;-0.89;67.45;100337.13;5012660;28;20038;-76
2021/12/25 10:34:23;;;;;;;4.17;1.30;;;;;;;-0.81;66.07;100326.13;5012479;28;20042;-78
2021/12/25 10:36:49;;;;;;;2.20;0.80;;;;;;;-0.83;65.36;100338.16;5012584;28;20484;-77
2021/12/25 10:39:27;;;;;;;3.73;0.90;;;;;;;-0.89;65.42;100336.25;5010705;28;20037;-77
2021/12/25 10:42:11;;;;;;;3.57;1.10;;;;;;;-0.75;65.85;100337.63;5008957;28;20038;-77
2021/12/25 10:44:46;;;;;;;1.90;0.70;;;;;;;-0.69;64.96;100342.13;5012289;28;20061;-77
2021/12/25 10:47:15;;;;;;;5.03;1.03;;;;;;;-0.57;66.07;100347.75;5012324;28;20296;-77
2021/12/25 10:49:45;;;;;;;2.53;0.83;;;;;;;-0.58;64.08;100342.50;5012236;28;20041;-77
2021/12/25 10:52:44;;;;;;;5.83;0.90;;;;;;;-0.60;64.55;100347.66;5012339;28;20044;-77
2021/12/25 10:55:18;;;;;;;3.50;1.00;;;;;;;-0.55;64.84;100345.22;5012024;28;20049;-77
2021/12/25 10:57:47;;;;;;;3.23;1.00;;;;;;;-0.50;65.25;100338.47;5009103;28;20037;-76
2021/12/25 11:00:20;;;;;;;4.03;1.03;;;;;;;-0.39;64.65;100336.25;5012179;28;20044;-77
2021/12/25 11:02:48;;;;;;;2.13;0.80;;;;;;;-0.35;65.22;100338.13;5019235;28;20033;-76
2021/12/25 11:05:25;;;;;;;4.70;0.70;;;;;;;-0.31;63.01;100334.84;5011956;28;20492;-76
2021/12/25 11:08:08;;;;;;;4.67;1.00;;;;;;;-0.37;62.05;100340.66;5011863;28;20124;-76
2021/12/25 11:10:45;;;;;;;;;;;;;;;-0.51;61.95;100340.19;5009246;28;20049;-76
2021/12/25 11:13:22;;;;;;;2.47;0.80;;;;;;;-0.54;62.81;100336.63;5011958;28;19913;-77
2021/12/25 11:15:49;;;;;;;3.13;1.00;;;;;;;-0.48;64.74;100336.81;5011698;28;20045;-76
2021/12/25 11:18:16;;;;;;;2.57;0.90;;;;;;;-0.48;63.32;100337.69;5011510;28;20408;-77
2021/12/25 11:20:43;;;;;;;3.17;0.63;;;;;;;-0.49;63.39;100335.06;5011960;28;20045;-76
2021/12/25 11:23:11;;;;;;;4.20;1.00;;;;;;;-0.45;64.11;100329.16;5011754;28;20037;-77
2021/12/25 11:25:38;;;;;;;5.93;0.70;;;;;;;-0.36;63.80;100338.97;5018682;28;20084;-77
2021/12/25 11:28:09;;;;;;;1.53;0.77;;;;;;;-0.45;62.56;100339.53;5011592;28;20046;-77
2021/12/25 11:30:37;;;;;;;4.47;1.00;;;;;;;-0.60;62.73;100342.47;5010547;28;20038;-77
2021/12/25 11:33:02;;;;;;;3.50;0.90;;;;;;;-0.58;64.91;100342.50;5011655;28;20057;-76
2021/12/25 11:35:28;;;;;;;3.50;0.90;;;;;;;-0.79;62.89;100340.03;5011486;28;20484;-77
2021/12/25 11:37:55;;;;;;;5.03;1.10;;;;;;;-0.97;63.89;100341.13;5011348;28;20041;-77
2021/12/25 11:40:24;;;;;;;3.80;0.90;;;;;;;-1.04;64.18;100344.31;5016268;28;20042;-77
2021/12/25 11:42:55;;;;;;;4.37;1.20;;;;;;;-1.13;64.88;100338.78;5010366;28;20042;-76
2021/12/25 11:45:25;;;;;;;4.93;1.20;;;;;;;-1.15;64.95;100340.47;5011502;28;20049;-77
2021/12/25 11:47:53;;;;;;;2.67;0.70;;;;;;;-1.24;65.08;100334.91;5010311;28;20404;-76
2021/12/25 11:50:33;;;;;;;3.57;0.90;;;;;;;-1.23;65.61;100347.03;5011574;28;20489;-76
2021/12/25 11:53:09;;;;;;;3.33;0.97;;;;;;;-1.37;65.75;100344.78;5007833;28;20105;-76
2021/12/25 11:58:37;;;;;;;2.90;1.10;;;;;;;-1.66;66.32;100345.34;5010087;28;20481;-76
2021/12/25 12:01:30;;;;;;;2.53;0.83;;;;;;;-1.81;66.26;100343.03;5009003;28;20050;-76
2021/12/25 12:04:00;;;;;;;3.10;0.97;;;;;;;-1.88;66.97;100338.44;5008312;28;20034;-76
2021/12/25 12:06:56;;;;;;;3.53;1.00;;;;;;;-1.99;67.11;100343.19;5011235;28;20041;-76
2021/12/25 12:09:55;;;;;;;3.77;1.20;;;;;;;-2.01;67.64;100352.56;5011724;28;20046;-76
2021/12/25 12:12:47;;;;;;;4.27;1.10;;;;;;;-2.06;67.83;100339.44;5007785;28;20113;-76
2021/12/25 12:16:08;;;;;;;4.03;0.90;;;;;;;-2.22;68.63;100353.44;5007880;28;20057;-76
2021/12/25 12:19:01;;;;;;;5.13;1.23;;;;;;;-2.41;69.68;100361.25;5009135;28;20160;-76
2021/12/25 12:21:35;;;;;;;4.63;1.37;;;;;;;-2.48;69.99;100364.38;5010000;28;20070;-76
2021/12/25 12:24:50;;;;;;;3.83;1.30;;;;;;;-2.63;70.20;100363.69;5011166;28;20042;-76
2021/12/25 12:27:09;;;;;;;4.63;1.33;;;;;;;-2.63;70.26;100362.00;5007931;28;20061;-76
2021/12/25 12:29:38;;;;;;;3.57;1.50;;;;;;;-2.73;70.90;100350.34;5012884;28;20046;-76
2021/12/25 12:32:07;;;;;;;2.53;0.90;;;;;;;-2.78;71.38;100354.44;5013500;28;20037;-76
2021/12/25 12:34:36;;;;;;;3.70;0.97;;;;;;;-2.82;71.50;100356.84;5014548;28;20503;-76
2021/12/25 12:37:13;;;;;;;4.67;1.60;;;;;;;-2.87;70.86;100369.53;5014680;28;20407;-76
2021/12/25 12:39:43;;;;;;;4.17;1.50;;;;;;;-2.90;71.56;100372.00;5013316;28;20393;-76
2021/12/25 12:42:12;;;;;;;4.10;1.20;;;;;;;-2.83;71.16;100375.72;5014460;28;20048;-76
2021/12/25 12:44:38;;;;;;;3.67;1.27;;;;;;;-2.79;70.94;100378.50;5021510;28;20033;-76
2021/12/25 12:47:14;;;;;;;7.20;1.67;;;;;;;-2.85;71.21;100383.41;5014251;28;20038;-76
2021/12/25 12:49:45;;;;;;;3.87;1.27;;;;;;;-2.89;72.17;100373.75;5021710;28;20044;-76
2021/12/25 12:52:34;;;;;;;3.27;1.20;;;;;;;-2.86;71.52;100376.47;5014461;28;20042;-76
2021/12/25 12:55:06;;;;;;;6.83;1.20;;;;;;;-2.90;71.51;100379.75;5012436;28;20117;-76
2021/12/25 12:57:33;;;;;;;5.78;1.27;;;;;;;-2.94;71.39;100377.81;5014349;28;20408;-76
2021/12/25 13:00:13;;;;;;;3.33;1.13;;;;;;;-3.09;71.73;100373.75;5014277;28;20050;-76